createdAt,value
2023-05-13T00:00:05.374Z,95524.56
2023-05-13T00:02:39.572Z,95530.50
2023-05-13T00:05:26.352Z,95520.31
2023-05-13T00:08:02.173Z,95522.03
2023-05-13T00:10:49.322Z,95522.06
2023-05-13T00:13:22.493Z,95516.97
2023-05-13T00:16:10.426Z,95524.63
2023-05-13T00:18:43.469Z,95528.03
2023-05-13T00:21:30.346Z,95522.06
2023-05-13T00:24:03.467Z,95517.84
2023-05-13T00:26:50.356Z,95517.81
2023-05-13T00:29:23.468Z,95518.66
2023-05-13T00:32:17.435Z,95519.50
2023-05-13T00:35:11.373Z,95522.88
2023-05-13T00:37:58.348Z,95520.34
2023-05-13T00:40:32.438Z,95522.91
2023-05-13T00:43:19.340Z,95521.19
2023-05-13T00:45:59.428Z,95524.59
2023-05-13T00:48:46.364Z,95528.00
2023-05-13T00:51:26.354Z,95530.56
2023-05-13T00:54:13.365Z,95527.16
2023-05-13T00:56:53.345Z,95532.28
2023-05-13T00:59:47.380Z,95532.28
2023-05-13T01:02:41.461Z,95525.47
2023-05-13T01:05:51.592Z,95531.41
2023-05-13T01:09:03.378Z,95539.94
2023-05-13T01:11:50.379Z,95542.47
2023-05-13T01:14:50.356Z,95539.06
2023-05-13T01:17:54.416Z,95546.75
2023-05-13T01:20:29.511Z,95550.97
2023-05-13T01:23:18.372Z,95544.19
2023-05-13T01:25:51.486Z,95540.78
2023-05-13T01:28:38.380Z,95537.41
2023-05-13T01:31:12.519Z,95539.94
2023-05-13T01:33:59.379Z,95545.91
2023-05-13T01:36:32.649Z,95540.81
2023-05-13T01:39:20.386Z,95535.69
2023-05-13T01:41:53.470Z,95534.84
2023-05-13T01:44:40.383Z,95534.84
2023-05-13T01:47:13.500Z,95534.00
2023-05-13T01:50:00.392Z,95535.72
2023-05-13T01:52:33.479Z,95536.56
2023-05-13T01:55:20.370Z,95536.56
2023-05-13T01:57:53.489Z,95534.91
2023-05-13T02:00:40.380Z,95537.44
2023-05-13T02:03:20.475Z,95539.16
2023-05-13T02:06:14.396Z,95536.59
2023-05-13T02:09:08.394Z,95538.31
2023-05-13T02:11:55.395Z,95541.69
2023-05-13T02:14:28.488Z,95534.91
2023-05-13T02:17:15.408Z,95531.53
2023-05-13T02:19:55.392Z,95534.09
2023-05-13T02:22:49.433Z,95532.38
2023-05-13T02:25:36.403Z,95532.38
2023-05-13T02:28:09.483Z,95537.47
2023-05-13T02:31:03.421Z,95534.94
2023-05-13T02:33:57.388Z,95541.72
2023-05-13T02:36:51.421Z,95545.13
2023-05-13T02:39:38.404Z,95536.63
2023-05-13T02:42:12.532Z,95541.72
2023-05-13T02:44:59.399Z,95547.69
2023-05-13T02:47:32.547Z,95549.38
2023-05-13T02:50:20.555Z,95546.81
2023-05-13T02:53:01.474Z,95551.91
2023-05-13T02:55:55.414Z,95549.38
2023-05-13T02:58:49.415Z,95554.47
2023-05-13T03:01:43.488Z,95556.16
2023-05-13T03:04:30.406Z,95561.28
2023-05-13T03:07:10.411Z,95559.56
2023-05-13T03:09:57.430Z,95556.16
2023-05-13T03:12:30.710Z,95557.88
2023-05-13T03:15:17.458Z,95559.59
2023-05-13T03:17:50.695Z,95564.66
2023-05-13T03:20:37.413Z,95559.56
2023-05-13T03:23:10.572Z,95554.47
2023-05-13T03:25:57.437Z,95555.31
2023-05-13T03:28:30.805Z,95562.94
2023-05-13T03:31:24.513Z,95552.78
2023-05-13T03:34:18.422Z,95559.59
2023-05-13T03:37:05.432Z,95559.56
2023-05-13T03:39:38.576Z,95565.53
2023-05-13T03:42:26.455Z,95565.50
2023-05-13T03:44:59.595Z,95564.69
2023-05-13T03:47:46.482Z,95567.22
2023-05-13T03:50:19.620Z,95570.59
2023-05-13T03:53:06.418Z,95568.06
2023-05-13T03:55:39.548Z,95574.84
2023-05-13T03:58:28.438Z,95579.94
2023-05-13T04:01:08.442Z,95579.94
2023-05-13T04:03:56.461Z,95585.91
2023-05-13T04:06:29.532Z,95587.59
2023-05-13T04:09:16.438Z,95585.03
2023-05-13T04:11:56.435Z,95594.38
2023-05-13T04:14:43.456Z,95592.69
2023-05-13T04:17:23.461Z,95598.63
2023-05-13T04:20:10.465Z,95592.69
2023-05-13T04:22:50.455Z,95596.09
2023-05-13T04:25:44.456Z,95593.50
2023-05-13T04:28:31.472Z,95597.75
2023-05-13T04:31:04.588Z,95601.16
2023-05-13T04:33:51.451Z,95595.19
2023-05-13T04:36:24.557Z,95596.03
2023-05-13T04:39:11.447Z,95597.75
2023-05-13T04:41:44.593Z,95597.75
2023-05-13T04:44:31.484Z,95597.75
2023-05-13T04:47:04.637Z,95597.72
2023-05-13T04:49:51.448Z,95605.34
2023-05-13T04:52:25.664Z,95600.22
2023-05-13T04:55:12.502Z,95596.81
2023-05-13T04:57:45.685Z,95598.53
2023-05-13T05:00:32.476Z,95601.91
2023-05-13T05:03:12.572Z,95602.72
2023-05-13T05:05:59.497Z,95606.06
2023-05-13T05:08:32.631Z,95606.06
2023-05-13T05:11:19.480Z,95610.28
2023-05-13T05:13:59.492Z,95611.13
2023-05-13T05:16:46.464Z,95610.22
2023-05-13T05:19:30.557Z,95613.59
2023-05-13T05:22:24.704Z,95611.03
2023-05-13T05:25:11.499Z,95617.81
2023-05-13T05:27:44.623Z,95613.56
2023-05-13T05:30:31.472Z,95619.47
2023-05-13T05:33:05.649Z,95616.88
2023-05-13T05:35:52.498Z,95620.25
2023-05-13T05:38:25.628Z,95608.28
2023-05-13T05:41:12.517Z,95613.34
2023-05-13T05:43:45.659Z,95620.97
2023-05-13T05:46:32.676Z,95621.78
2023-05-13T05:49:12.487Z,95625.06
2023-05-13T05:52:06.521Z,95623.28
2023-05-13T05:55:00.526Z,95624.91
2023-05-13T05:57:54.508Z,95620.53
2023-05-13T06:00:48.494Z,95623.88
2023-05-13T06:03:35.552Z,95625.38
2023-05-13T06:06:08.716Z,95627.78
2023-05-13T06:08:55.495Z,95620.72
2023-05-13T06:11:28.643Z,95623.16
2023-05-13T06:14:15.485Z,95622.09
2023-05-13T06:16:48.633Z,95627.03
2023-05-13T06:19:35.504Z,95629.50
2023-05-13T06:22:08.608Z,95629.34
2023-05-13T06:24:55.518Z,95629.19
2023-05-13T06:27:28.631Z,95627.53
2023-05-13T06:30:15.514Z,95624.00
2023-05-13T06:33:00.209Z,95623.06
2023-05-13T06:35:41.523Z,95621.19
2023-05-13T06:38:24.536Z,95620.97
2023-05-13T06:40:57.634Z,95616.50
2023-05-13T06:43:45.563Z,95614.63
2023-05-13T06:46:21.682Z,95609.16
2023-05-13T06:49:08.519Z,95614.03
2023-05-13T06:51:48.525Z,95609.63
2023-05-13T06:54:35.526Z,95613.66
2023-05-13T06:57:08.639Z,95603.94
2023-05-13T06:59:55.502Z,95602.59
2023-05-13T07:02:28.678Z,95603.22
2023-05-13T07:05:16.518Z,95602.41
2023-05-13T07:07:53.621Z,95611.69
2023-05-13T07:10:41.548Z,95609.69
2023-05-13T07:13:21.519Z,95607.81
2023-05-13T07:16:11.572Z,95611.31
2023-05-13T07:18:51.622Z,95606.38
2023-05-13T07:21:45.590Z,95603.06
2023-05-13T07:24:32.615Z,95597.94
2023-05-13T07:27:05.630Z,95610.59
2023-05-13T07:29:52.563Z,95603.47
2023-05-13T07:32:25.816Z,95598.22
2023-05-13T07:35:13.563Z,95603.25
2023-05-13T07:37:46.726Z,95605.75
2023-05-13T07:40:33.558Z,95607.53
2023-05-13T07:43:06.672Z,95604.09
2023-05-13T07:45:53.543Z,95605.03
2023-05-13T07:48:28.265Z,95607.53
2023-05-13T07:51:14.533Z,95603.16
2023-05-13T07:53:47.724Z,95605.56
2023-05-13T07:56:34.563Z,95601.91
2023-05-13T07:59:14.539Z,95601.69
2023-05-13T08:02:08.644Z,95602.47
2023-05-13T08:04:55.630Z,95605.28
2023-05-13T08:07:35.552Z,95612.94
2023-05-13T08:10:29.598Z,95605.91
2023-05-13T08:13:23.589Z,95604.63
2023-05-13T08:16:17.600Z,95615.44
2023-05-13T08:19:04.623Z,95611.13
2023-05-13T08:21:37.709Z,95613.63
2023-05-13T08:24:24.551Z,95609.16
2023-05-13T08:26:57.696Z,95599.56
2023-05-13T08:29:44.580Z,95605.47
2023-05-13T08:32:18.807Z,95611.50
2023-05-13T08:35:05.583Z,95600.09
2023-05-13T08:37:38.679Z,95601.53
2023-05-13T08:40:25.567Z,95607.22
2023-05-13T08:43:02.790Z,95604.16
2023-05-13T08:45:54.608Z,95605.41
2023-05-13T08:48:28.689Z,95605.09
2023-05-13T08:51:16.620Z,95599.84
2023-05-13T08:53:50.887Z,95605.69
2023-05-13T08:56:40.217Z,95596.22
2023-05-13T08:59:20.572Z,95594.53
2023-05-13T09:02:14.614Z,95600.59
2023-05-13T09:05:02.818Z,95599.84
2023-05-13T09:07:39.748Z,95597.34
2023-05-13T09:10:27.610Z,95597.28
2023-05-13T09:13:10.617Z,95603.06
2023-05-13T09:16:04.619Z,95598.81
2023-05-13T09:18:51.671Z,95604.06
2023-05-13T09:21:37.653Z,95596.59
2023-05-13T09:24:40.592Z,95600.22
2023-05-13T09:27:43.604Z,95595.56
2023-05-13T09:30:17.759Z,95602.09
2023-05-13T09:33:11.717Z,95596.31
2023-05-13T09:35:45.812Z,95588.03
2023-05-13T09:38:34.586Z,95585.75
2023-05-13T09:41:16.614Z,95584.63
2023-05-13T09:44:04.597Z,95592.63
2023-05-13T09:46:45.627Z,95590.00
2023-05-13T09:49:42.601Z,95589.88
2023-05-13T09:52:29.628Z,95587.63
2023-05-13T09:55:05.239Z,95586.94
2023-05-13T09:57:52.622Z,95590.34
2023-05-13T10:00:33.931Z,95591.41
2023-05-13T10:03:22.761Z,95590.31
2023-05-13T10:05:57.751Z,95587.31
2023-05-13T10:08:45.621Z,95596.78
2023-05-13T10:11:19.715Z,95588.94
2023-05-13T10:14:09.835Z,95587.16
2023-05-13T10:16:50.660Z,95583.44
2023-05-13T10:19:37.650Z,95588.25
2023-05-13T10:22:11.739Z,95584.75
2023-05-13T10:24:58.667Z,95584.88
2023-05-13T10:27:39.748Z,95585.22
2023-05-13T10:30:32.613Z,95580.19
2023-05-13T10:33:06.850Z,95582.25
2023-05-13T10:36:28.614Z,95605.09
2023-05-13T10:39:46.630Z,95592.63
2023-05-13T10:43:01.632Z,95605.50
2023-05-13T10:46:03.662Z,95605.50
2023-05-13T10:48:55.630Z,95618.09
2023-05-13T10:51:39.654Z,95622.03
2023-05-13T10:54:35.642Z,95620.13
2023-05-13T10:57:22.650Z,95616.50
2023-05-13T11:00:37.397Z,95617.97
2023-05-13T11:03:28.207Z,95624.09
2023-05-13T11:06:22.356Z,95623.16
2023-05-13T11:09:12.675Z,95625.81
2023-05-13T11:11:46.749Z,95639.44
2023-05-13T11:14:34.642Z,95643.06
2023-05-13T11:17:07.789Z,95637.84
2023-05-13T11:19:57.661Z,95636.84
2023-05-13T11:22:30.780Z,95646.94
2023-05-13T11:25:19.648Z,95641.75
2023-05-13T11:27:55.759Z,95637.34
2023-05-13T11:30:42.670Z,95638.25
2023-05-13T11:33:15.756Z,95643.38
2023-05-13T11:36:02.668Z,95643.00
2023-05-13T11:38:35.756Z,95649.28
2023-05-13T11:41:22.657Z,95655.34
2023-05-13T11:44:05.666Z,95648.63
2023-05-13T11:47:05.674Z,95655.22
2023-05-13T11:49:55.728Z,95646.25
2023-05-13T11:52:49.699Z,95639.97
2023-05-13T11:55:36.702Z,95648.19
2023-05-13T11:58:10.766Z,95646.25
2023-05-13T12:00:58.689Z,95642.59
2023-05-13T12:03:35.298Z,95647.75
2023-05-13T12:06:22.708Z,95647.72
2023-05-13T12:08:55.859Z,95649.78
2023-05-13T12:11:42.704Z,95656.41
2023-05-13T12:14:15.815Z,95652.38
2023-05-13T12:17:03.699Z,95651.38
2023-05-13T12:19:37.491Z,95657.91
2023-05-13T12:22:28.693Z,95652.91
2023-05-13T12:25:12.682Z,95653.53
2023-05-13T12:28:06.699Z,95648.09
2023-05-13T12:30:58.894Z,95649.78
2023-05-13T12:33:40.771Z,95649.69
2023-05-13T12:36:42.790Z,95654.97
2023-05-13T12:39:24.723Z,95655.91
2023-05-13T12:42:11.708Z,95661.28
2023-05-13T12:44:52.709Z,95655.56
2023-05-13T12:48:04.778Z,95659.16
2023-05-13T12:51:00.669Z,95655.00
2023-05-13T12:53:55.688Z,95669.28
2023-05-13T12:56:49.718Z,95664.66
2023-05-13T12:59:37.697Z,95664.66
2023-05-13T13:02:10.811Z,95657.78
2023-05-13T13:04:57.768Z,95667.34
2023-05-13T13:07:30.933Z,95657.06
2023-05-13T13:10:17.698Z,95659.78
2023-05-13T13:12:50.920Z,95652.16
2023-05-13T13:15:37.724Z,95651.22
2023-05-13T13:18:17.713Z,95647.63
2023-05-13T13:21:04.727Z,95651.78
2023-05-13T13:23:52.728Z,95650.78
2023-05-13T13:26:39.713Z,95649.66
2023-05-13T13:29:19.728Z,95651.09
2023-05-13T13:32:13.777Z,95651.81
2023-05-13T13:35:09.738Z,95643.84
2023-05-13T13:38:03.719Z,95646.09
2023-05-13T13:40:50.730Z,95650.31
2023-05-13T13:43:23.891Z,95643.44
2023-05-13T13:46:10.755Z,95646.75
2023-05-13T13:48:43.840Z,95647.47
2023-05-13T13:51:30.759Z,95641.34
2023-05-13T13:54:03.839Z,95635.25
2023-05-13T13:56:50.728Z,95637.72
2023-05-13T13:59:30.745Z,95642.72
2023-05-13T14:02:17.756Z,95640.72
2023-05-13T14:05:00.745Z,95638.88
2023-05-13T14:07:47.753Z,95631.69
2023-05-13T14:10:27.745Z,95637.63
2023-05-13T14:13:14.754Z,95639.28
2023-05-13T14:15:54.820Z,95636.66
2023-05-13T14:18:48.841Z,95642.88
2023-05-13T14:21:35.755Z,95642.75
2023-05-13T14:24:15.761Z,95648.75
2023-05-13T14:27:09.755Z,95640.19
2023-05-13T14:29:56.804Z,95636.88
2023-05-13T14:32:29.903Z,95644.50
2023-05-13T14:35:16.789Z,95639.31
2023-05-13T14:37:49.973Z,95640.00
2023-05-13T14:40:36.765Z,95643.50
2023-05-13T14:43:09.901Z,95646.13
2023-05-13T14:45:56.773Z,95647.91
2023-05-13T14:48:29.996Z,95646.28
2023-05-13T14:51:18.742Z,95635.31
2023-05-13T14:53:51.865Z,95643.97
2023-05-13T14:56:38.748Z,95639.09
2023-05-13T14:59:11.874Z,95644.66
2023-05-13T15:01:58.831Z,95649.44
2023-05-13T15:04:31.977Z,95651.34
2023-05-13T15:07:18.786Z,95649.88
2023-05-13T15:09:58.780Z,95651.00
2023-05-13T15:12:52.771Z,95652.88
2023-05-13T15:15:46.772Z,95648.91
2023-05-13T15:18:41.814Z,95652.78
2023-05-13T15:21:35.763Z,95648.75
2023-05-13T15:24:22.787Z,95646.50
2023-05-13T15:26:56.895Z,95642.38
2023-05-13T15:29:43.759Z,95652.09
2023-05-13T15:32:16.888Z,95645.47
2023-05-13T15:35:03.793Z,95636.88
2023-05-13T15:37:43.807Z,95636.03
2023-05-13T15:40:37.782Z,95636.16
2023-05-13T15:43:24.809Z,95631.16
2023-05-13T15:45:58.933Z,95630.44
2023-05-13T15:48:46.050Z,95643.44
2023-05-13T15:51:20.673Z,95637.47
2023-05-13T15:54:07.803Z,95642.69
2023-05-13T15:56:40.920Z,95647.03
2023-05-13T15:59:27.791Z,95634.31
2023-05-13T16:02:01.066Z,95637.81
2023-05-13T16:04:47.819Z,95631.88
2023-05-13T16:07:30.824Z,95625.94
2023-05-13T16:10:25.021Z,95619.16
2023-05-13T16:13:18.798Z,95620.06
2023-05-13T16:16:12.856Z,95626.09
2023-05-13T16:18:59.836Z,95620.91
2023-05-13T16:21:32.906Z,95625.13
2023-05-13T16:24:19.801Z,95616.50
2023-05-13T16:26:59.799Z,95617.31
2023-05-13T16:29:46.856Z,95613.88
2023-05-13T16:32:19.904Z,95616.34
2023-05-13T16:35:07.802Z,95614.59
2023-05-13T16:37:41.194Z,95616.28
2023-05-13T16:40:27.988Z,95607.69
2023-05-13T16:43:03.648Z,95596.56
2023-05-13T16:45:45.888Z,95599.13
2023-05-13T16:48:32.901Z,95598.22
2023-05-13T16:51:26.850Z,95587.94
2023-05-13T16:54:13.932Z,95590.47
2023-05-13T16:56:47.067Z,95590.50
2023-05-13T16:59:34.893Z,95582.84
2023-05-13T17:02:08.132Z,95587.13
2023-05-13T17:04:54.867Z,95593.16
2023-05-13T17:07:27.945Z,95597.41
2023-05-13T17:10:14.848Z,95594.03
2023-05-13T17:12:47.989Z,95595.78
2023-05-13T17:15:34.858Z,95596.69
2023-05-13T17:18:08.044Z,95594.19
2023-05-13T17:20:54.935Z,95590.81
2023-05-13T17:23:27.959Z,95595.13
2023-05-13T17:26:14.863Z,95592.69
2023-05-13T17:28:54.870Z,95590.19
2023-05-13T17:31:41.881Z,95596.22
2023-05-13T17:34:14.977Z,95597.16
2023-05-13T17:37:01.912Z,95609.19
2023-05-13T17:39:34.958Z,95611.09
2023-05-13T17:42:21.866Z,95606.06
2023-05-13T17:44:54.979Z,95604.59
2023-05-13T17:47:42.082Z,95599.63
2023-05-13T17:50:16.301Z,95605.81
2023-05-13T17:53:02.847Z,95595.66
2023-05-13T17:55:36.994Z,95601.84
2023-05-13T17:58:23.878Z,95602.78
2023-05-13T18:00:57.089Z,95602.91
2023-05-13T18:03:43.862Z,95600.50
2023-05-13T18:06:17.178Z,95601.47
2023-05-13T18:09:03.913Z,95610.97
2023-05-13T18:11:37.005Z,95604.25
2023-05-13T18:14:23.873Z,95606.16
2023-05-13T18:16:57.096Z,95611.41
2023-05-13T18:19:43.880Z,95606.47
2023-05-13T18:22:21.088Z,95611.72
2023-05-13T18:25:07.840Z,95606.78
2023-05-13T18:27:41.050Z,95615.41
2023-05-13T18:30:28.633Z,95614.69
2023-05-13T18:33:03.107Z,95628.50
2023-05-13T18:35:49.932Z,95636.25
2023-05-13T18:38:30.848Z,95637.19
2023-05-13T18:41:24.875Z,95638.97
2023-05-13T18:44:11.879Z,95640.75
2023-05-13T18:46:51.928Z,95646.78
2023-05-13T18:49:46.962Z,95643.44
2023-05-13T18:52:33.904Z,95646.09
2023-05-13T18:55:10.021Z,95652.13
2023-05-13T18:57:56.895Z,95649.59
2023-05-13T19:00:30.045Z,95647.94
2023-05-13T19:03:17.997Z,95654.81
2023-05-13T19:05:52.204Z,95654.88
2023-05-13T19:08:39.904Z,95651.53
2023-05-13T19:11:19.878Z,95653.25
2023-05-13T19:14:14.886Z,95656.72
2023-05-13T19:17:01.965Z,95660.13
2023-05-13T19:19:35.054Z,95660.97
2023-05-13T19:22:21.904Z,95656.75
2023-05-13T19:24:57.308Z,95657.59
2023-05-13T19:27:43.891Z,95661.00
2023-05-13T19:30:18.063Z,95656.75
2023-05-13T19:33:11.975Z,95652.47
2023-05-13T19:36:05.931Z,95660.13
2023-05-13T19:38:59.914Z,95666.97
2023-05-13T19:41:54.927Z,95657.59
2023-05-13T19:44:48.916Z,95662.69
2023-05-13T19:47:36.963Z,95658.41
2023-05-13T19:50:14.401Z,95656.75
2023-05-13T19:53:04.100Z,95647.34
2023-05-13T19:55:45.113Z,95645.66
2023-05-13T19:58:31.967Z,95649.09
2023-05-13T20:01:05.025Z,95653.41
2023-05-13T20:03:53.044Z,95654.22
2023-05-13T20:06:32.910Z,95652.47
2023-05-13T20:09:20.905Z,95648.19
2023-05-13T20:12:00.932Z,95651.59
2023-05-13T20:14:52.911Z,95645.59
2023-05-13T20:17:27.292Z,95639.69
2023-05-13T20:20:14.912Z,95638.88
2023-05-13T20:22:48.044Z,95632.91
2023-05-13T20:25:34.935Z,95624.44
2023-05-13T20:28:08.060Z,95631.28
2023-05-13T20:30:57.937Z,95627.94
2023-05-13T20:33:31.065Z,95628.78
2023-05-13T20:36:17.922Z,95628.84
2023-05-13T20:38:57.945Z,95631.44
2023-05-13T20:41:51.963Z,95625.50
2023-05-13T20:44:46.179Z,95625.53
2023-05-13T20:47:35.210Z,95628.97
2023-05-13T20:50:09.081Z,95628.94
2023-05-13T20:52:55.936Z,95623.88
2023-05-13T20:55:35.918Z,95628.16
2023-05-13T20:58:22.981Z,95611.19
2023-05-13T21:00:56.115Z,95618.03
2023-05-13T21:03:43.015Z,95624.84
2023-05-13T21:06:17.185Z,95619.75
2023-05-13T21:09:03.984Z,95623.19
2023-05-13T21:11:37.186Z,95618.97
2023-05-13T21:14:23.957Z,95620.69
2023-05-13T21:16:57.191Z,95618.13
2023-05-13T21:19:43.954Z,95621.53
2023-05-13T21:22:17.112Z,95618.16
2023-05-13T21:25:04.034Z,95617.31
2023-05-13T21:27:37.023Z,95619.00
2023-05-13T21:30:24.161Z,95620.72
2023-05-13T21:33:05.052Z,95615.59
2023-05-13T21:35:58.974Z,95613.94
2023-05-13T21:38:52.961Z,95615.66
2023-05-13T21:41:40.034Z,95614.78
2023-05-13T21:44:13.132Z,95619.03
2023-05-13T21:46:59.953Z,95617.34
2023-05-13T21:49:39.969Z,95621.59
2023-05-13T21:52:29.996Z,95616.47
2023-05-13T21:55:03.068Z,95622.44
2023-05-13T21:57:49.950Z,95609.69
2023-05-13T22:00:30.976Z,95619.88
2023-05-13T22:03:25.000Z,95616.47
2023-05-13T22:06:11.980Z,95615.63
2023-05-13T22:08:45.074Z,95617.31
2023-05-13T22:11:31.955Z,95613.06
2023-05-13T22:14:13.001Z,95612.19
2023-05-13T22:17:09.097Z,95603.69
2023-05-13T22:19:56.957Z,95607.09
2023-05-13T22:22:30.316Z,95615.59
2023-05-13T22:25:16.970Z,95611.31
2023-05-13T22:27:56.998Z,95608.78
2023-05-13T22:30:43.969Z,95603.69
2023-05-13T22:33:17.278Z,95612.16
2023-05-13T22:36:04.012Z,95613.84
2023-05-13T22:38:37.378Z,95616.34
2023-05-13T22:41:26.999Z,95614.66
2023-05-13T22:44:00.112Z,95618.88
2023-05-13T22:46:47.063Z,95618.00
2023-05-13T22:49:20.154Z,95619.72
2023-05-13T22:52:06.978Z,95619.69
2023-05-13T22:54:40.088Z,95618.78
2023-05-13T22:57:29.984Z,95617.94
2023-05-13T23:00:10.022Z,95613.72
2023-05-13T23:03:04.080Z,95611.13
2023-05-13T23:05:50.990Z,95617.06
2023-05-13T23:08:24.085Z,95604.31
2023-05-13T23:11:10.994Z,95601.78
2023-05-13T23:13:44.085Z,95604.34
2023-05-13T23:16:31.089Z,95591.66
2023-05-13T23:19:04.130Z,95594.22
2023-05-13T23:21:51.022Z,95596.78
2023-05-13T23:24:24.166Z,95596.78
2023-05-13T23:27:11.008Z,95590.00
2023-05-13T23:29:51.020Z,95589.19
2023-05-13T23:32:38.064Z,95587.47
2023-05-13T23:35:12.115Z,95589.19
2023-05-13T23:37:59.011Z,95584.13
2023-05-13T23:40:39.008Z,95579.88
2023-05-13T23:43:26.010Z,95581.56
2023-05-13T23:45:59.192Z,95573.09
2023-05-13T23:48:46.007Z,95576.47
2023-05-13T23:51:25.996Z,95571.38
2023-05-13T23:54:20.021Z,95568.84
2023-05-13T23:57:07.060Z,95577.38
2023-05-13T23:59:47.041Z,95569.72
